sensor_id;sensor_type;location;lat;lon;timestamp;temperature;humidity
17252;DHT22;8742;51.716;8.790;2022-09-12T00:02:24;14.40;99.90
17252;DHT22;8742;51.716;8.790;2022-09-12T00:04:51;14.40;99.90
17252;DHT22;8742;51.716;8.790;2022-09-12T00:07:17;14.30;99.90
17252;DHT22;8742;51.716;8.790;2022-09-12T00:09:46;14.30;99.90
17252;DHT22;8742;51.716;8.790;2022-09-12T00:12:13;14.30;99.90
17252;DHT22;8742;51.716;8.790;2022-09-12T00:14:39;14.30;99.90
17252;DHT22;8742;51.716;8.790;2022-09-12T00:17:06;14.30;99.90
17252;DHT22;8742;51.716;8.790;2022-09-12T00:19:33;14.20;99.90
17252;DHT22;8742;51.716;8.790;2022-09-12T00:22:00;14.20;99.90
17252;DHT22;8742;51.716;8.790;2022-09-12T00:24:27;14.30;99.90
17252;DHT22;8742;51.716;8.790;2022-09-12T00:26:55;14.20;99.90
17252;DHT22;8742;51.716;8.790;2022-09-12T00:29:22;14.20;99.90
17252;DHT22;8742;51.716;8.790;2022-09-12T00:31:49;14.20;99.90
17252;DHT22;8742;51.716;8.790;2022-09-12T00:34:16;14.20;99.90
17252;DHT22;8742;51.716;8.790;2022-09-12T00:36:43;14.20;99.90
17252;DHT22;8742;51.716;8.790;2022-09-12T00:39:13;14.20;99.90
17252;DHT22;8742;51.716;8.790;2022-09-12T00:41:41;14.10;99.90
17252;DHT22;8742;51.716;8.790;2022-09-12T00:47:15;14.10;99.90
17252;DHT22;8742;51.716;8.790;2022-09-12T00:49:47;14.10;99.90
17252;DHT22;8742;51.716;8.790;2022-09-12T00:52:17;14.00;99.90
17252;DHT22;8742;51.716;8.790;2022-09-12T00:54:49;14.00;99.90
17252;DHT22;8742;51.716;8.790;2022-09-12T00:57:19;14.00;99.90
17252;DHT22;8742;51.716;8.790;2022-09-12T00:59:48;14.00;99.90
17252;DHT22;8742;51.716;8.790;2022-09-12T01:02:18;14.00;99.90
17252;DHT22;8742;51.716;8.790;2022-09-12T01:04:44;13.90;99.90
17252;DHT22;8742;51.716;8.790;2022-09-12T01:07:12;13.90;99.90
17252;DHT22;8742;51.716;8.790;2022-09-12T01:09:41;13.80;99.90
17252;DHT22;8742;51.716;8.790;2022-09-12T01:12:10;13.80;99.90
17252;DHT22;8742;51.716;8.790;2022-09-12T01:14:38;13.70;99.90
17252;DHT22;8742;51.716;8.790;2022-09-12T01:17:05;13.70;99.90
17252;DHT22;8742;51.716;8.790;2022-09-12T01:19:51;13.60;99.90
17252;DHT22;8742;51.716;8.790;2022-09-12T01:22:42;13.60;99.90
17252;DHT22;8742;51.716;8.790;2022-09-12T01:25:20;13.60;99.90
17252;DHT22;8742;51.716;8.790;2022-09-12T01:28:05;13.60;99.90
17252;DHT22;8742;51.716;8.790;2022-09-12T01:30:47;13.60;99.90
17252;DHT22;8742;51.716;8.790;2022-09-12T01:39:04;13.60;99.90
17252;DHT22;8742;51.716;8.790;2022-09-12T01:41:41;13.60;99.90
17252;DHT22;8742;51.716;8.790;2022-09-12T01:44:13;13.60;99.90
17252;DHT22;8742;51.716;8.790;2022-09-12T01:46:46;13.60;99.90
17252;DHT22;8742;51.716;8.790;2022-09-12T01:49:18;13.60;99.90
17252;DHT22;8742;51.716;8.790;2022-09-12T01:51:54;13.60;99.90
17252;DHT22;8742;51.716;8.790;2022-09-12T01:54:26;13.60;99.90
17252;DHT22;8742;51.716;8.790;2022-09-12T01:56:58;13.70;99.90
17252;DHT22;8742;51.716;8.790;2022-09-12T01:59:29;13.70;99.90
17252;DHT22;8742;51.716;8.790;2022-09-12T02:02:03;13.70;99.90
17252;DHT22;8742;51.716;8.790;2022-09-12T02:04:34;13.70;99.90
17252;DHT22;8742;51.716;8.790;2022-09-12T02:07:05;13.60;99.90
17252;DHT22;8742;51.716;8.790;2022-09-12T02:09:37;13.60;99.90
17252;DHT22;8742;51.716;8.790;2022-09-12T02:12:08;13.60;99.90
17252;DHT22;8742;51.716;8.790;2022-09-12T02:14:38;13.50;99.90
17252;DHT22;8742;51.716;8.790;2022-09-12T02:17:11;13.50;99.90
17252;DHT22;8742;51.716;8.790;2022-09-12T02:19:41;13.50;99.90
17252;DHT22;8742;51.716;8.790;2022-09-12T02:22:12;13.40;99.90
17252;DHT22;8742;51.716;8.790;2022-09-12T02:24:43;13.40;99.90
17252;DHT22;8742;51.716;8.790;2022-09-12T02:27:14;13.40;99.90
17252;DHT22;8742;51.716;8.790;2022-09-12T02:29:43;13.30;99.90
17252;DHT22;8742;51.716;8.790;2022-09-12T02:32:17;13.40;99.90
17252;DHT22;8742;51.716;8.790;2022-09-12T02:34:51;13.30;99.90
17252;DHT22;8742;51.716;8.790;2022-09-12T02:37:24;13.20;99.90
17252;DHT22;8742;51.716;8.790;2022-09-12T02:39:55;13.20;99.90
17252;DHT22;8742;51.716;8.790;2022-09-12T02:42:23;13.10;99.90
17252;DHT22;8742;51.716;8.790;2022-09-12T02:44:51;13.10;99.90
17252;DHT22;8742;51.716;8.790;2022-09-12T02:47:25;13.10;99.90
17252;DHT22;8742;51.716;8.790;2022-09-12T02:49:54;13.20;99.90
17252;DHT22;8742;51.716;8.790;2022-09-12T02:52:22;13.20;99.90
17252;DHT22;8742;51.716;8.790;2022-09-12T02:54:49;13.10;99.90
17252;DHT22;8742;51.716;8.790;2022-09-12T02:57:17;13.10;99.90
17252;DHT22;8742;51.716;8.790;2022-09-12T02:59:45;13.10;99.90
17252;DHT22;8742;51.716;8.790;2022-09-12T03:02:28;13.10;99.90
17252;DHT22;8742;51.716;8.790;2022-09-12T03:05:07;13.10;99.90
17252;DHT22;8742;51.716;8.790;2022-09-12T03:07:51;13.10;99.90
17252;DHT22;8742;51.716;8.790;2022-09-12T03:10:24;13.10;99.90
17252;DHT22;8742;51.716;8.790;2022-09-12T03:12:59;13.20;99.90
17252;DHT22;8742;51.716;8.790;2022-09-12T03:15:39;13.10;99.90
17252;DHT22;8742;51.716;8.790;2022-09-12T03:18:19;13.10;99.90
17252;DHT22;8742;51.716;8.790;2022-09-12T03:20:52;13.10;99.90
17252;DHT22;8742;51.716;8.790;2022-09-12T03:23:27;13.10;99.90
17252;DHT22;8742;51.716;8.790;2022-09-12T03:25:59;13.00;99.90
17252;DHT22;8742;51.716;8.790;2022-09-12T03:28:26;13.00;99.90
17252;DHT22;8742;51.716;8.790;2022-09-12T03:30:53;13.00;99.90
17252;DHT22;8742;51.716;8.790;2022-09-12T03:33:23;13.00;99.90
17252;DHT22;8742;51.716;8.790;2022-09-12T03:35:51;13.00;99.90
17252;DHT22;8742;51.716;8.790;2022-09-12T03:38:19;13.00;99.90
17252;DHT22;8742;51.716;8.790;2022-09-12T03:40:46;12.90;99.90
17252;DHT22;8742;51.716;8.790;2022-09-12T03:43:12;13.00;99.90
17252;DHT22;8742;51.716;8.790;2022-09-12T03:45:39;13.00;99.90
17252;DHT22;8742;51.716;8.790;2022-09-12T03:48:07;13.00;99.90
17252;DHT22;8742;51.716;8.790;2022-09-12T03:50:35;13.00;99.90
17252;DHT22;8742;51.716;8.790;2022-09-12T03:53:03;13.10;99.90
17252;DHT22;8742;51.716;8.790;2022-09-12T03:55:29;13.10;99.90
17252;DHT22;8742;51.716;8.790;2022-09-12T03:57:56;13.10;99.90
17252;DHT22;8742;51.716;8.790;2022-09-12T04:00:23;13.20;99.90
17252;DHT22;8742;51.716;8.790;2022-09-12T04:02:53;13.20;99.90
17252;DHT22;8742;51.716;8.790;2022-09-12T04:05:21;13.30;99.90
17252;DHT22;8742;51.716;8.790;2022-09-12T04:07:50;13.30;99.90
17252;DHT22;8742;51.716;8.790;2022-09-12T04:10:17;13.30;99.90
17252;DHT22;8742;51.716;8.790;2022-09-12T04:12:44;13.40;99.90
17252;DHT22;8742;51.716;8.790;2022-09-12T04:15:11;13.40;99.90
17252;DHT22;8742;51.716;8.790;2022-09-12T04:17:38;13.40;99.90
17252;DHT22;8742;51.716;8.790;2022-09-12T04:20:05;13.40;99.90
17252;DHT22;8742;51.716;8.790;2022-09-12T04:22:32;13.40;99.90
17252;DHT22;8742;51.716;8.790;2022-09-12T04:25:00;13.40;99.90
17252;DHT22;8742;51.716;8.790;2022-09-12T04:27:27;13.50;99.90
17252;DHT22;8742;51.716;8.790;2022-09-12T04:29:54;13.50;99.90
17252;DHT22;8742;51.716;8.790;2022-09-12T04:32:22;13.50;99.90
17252;DHT22;8742;51.716;8.790;2022-09-12T04:34:48;13.50;99.90
17252;DHT22;8742;51.716;8.790;2022-09-12T04:37:16;13.40;99.90
17252;DHT22;8742;51.716;8.790;2022-09-12T04:39:43;13.50;99.90
17252;DHT22;8742;51.716;8.790;2022-09-12T04:42:13;13.40;99.90
17252;DHT22;8742;51.716;8.790;2022-09-12T04:44:40;13.50;99.90
17252;DHT22;8742;51.716;8.790;2022-09-12T04:47:07;13.40;99.90
17252;DHT22;8742;51.716;8.790;2022-09-12T04:49:34;13.40;99.90
17252;DHT22;8742;51.716;8.790;2022-09-12T04:52:02;13.50;99.90
17252;DHT22;8742;51.716;8.790;2022-09-12T04:54:29;13.50;99.90
17252;DHT22;8742;51.716;8.790;2022-09-12T04:56:55;13.50;99.90
17252;DHT22;8742;51.716;8.790;2022-09-12T04:59:24;13.50;99.90
17252;DHT22;8742;51.716;8.790;2022-09-12T05:01:51;13.50;99.90
17252;DHT22;8742;51.716;8.790;2022-09-12T05:04:17;13.50;99.90
17252;DHT22;8742;51.716;8.790;2022-09-12T05:06:45;13.50;99.90
17252;DHT22;8742;51.716;8.790;2022-09-12T05:09:13;13.60;99.90
17252;DHT22;8742;51.716;8.790;2022-09-12T05:11:41;13.60;99.90
17252;DHT22;8742;51.716;8.790;2022-09-12T05:14:09;13.60;99.90
17252;DHT22;8742;51.716;8.790;2022-09-12T05:16:38;13.60;99.90
17252;DHT22;8742;51.716;8.790;2022-09-12T05:19:05;13.60;99.90
17252;DHT22;8742;51.716;8.790;2022-09-12T05:21:32;13.60;99.90
17252;DHT22;8742;51.716;8.790;2022-09-12T05:23:59;13.60;99.90
17252;DHT22;8742;51.716;8.790;2022-09-12T05:26:26;13.60;99.90
17252;DHT22;8742;51.716;8.790;2022-09-12T05:28:53;13.60;99.90
17252;DHT22;8742;51.716;8.790;2022-09-12T05:31:22;13.70;99.90
17252;DHT22;8742;51.716;8.790;2022-09-12T05:33:53;13.70;99.90
17252;DHT22;8742;51.716;8.790;2022-09-12T05:36:21;13.80;99.90
17252;DHT22;8742;51.716;8.790;2022-09-12T05:38:49;13.80;99.90
17252;DHT22;8742;51.716;8.790;2022-09-12T05:41:18;13.90;99.90
17252;DHT22;8742;51.716;8.790;2022-09-12T05:43:45;14.00;99.90
17252;DHT22;8742;51.716;8.790;2022-09-12T05:46:14;14.00;99.90
17252;DHT22;8742;51.716;8.790;2022-09-12T05:48:43;14.10;99.90
17252;DHT22;8742;51.716;8.790;2022-09-12T05:51:13;14.20;99.90
17252;DHT22;8742;51.716;8.790;2022-09-12T05:53:44;14.30;99.90
17252;DHT22;8742;51.716;8.790;2022-09-12T05:56:13;14.30;99.90
17252;DHT22;8742;51.716;8.790;2022-09-12T05:58:42;14.40;99.90
17252;DHT22;8742;51.716;8.790;2022-09-12T06:01:11;14.40;99.90
17252;DHT22;8742;51.716;8.790;2022-09-12T06:03:40;14.50;99.90
17252;DHT22;8742;51.716;8.790;2022-09-12T06:06:07;14.60;99.90
17252;DHT22;8742;51.716;8.790;2022-09-12T06:08:40;14.70;99.90
17252;DHT22;8742;51.716;8.790;2022-09-12T06:11:09;14.70;99.90
17252;DHT22;8742;51.716;8.790;2022-09-12T06:13:38;14.80;99.90
17252;DHT22;8742;51.716;8.790;2022-09-12T06:16:07;14.90;99.90
17252;DHT22;8742;51.716;8.790;2022-09-12T06:18:35;15.00;99.90
17252;DHT22;8742;51.716;8.790;2022-09-12T06:21:03;15.10;99.90
17252;DHT22;8742;51.716;8.790;2022-09-12T06:23:30;15.10;99.90
17252;DHT22;8742;51.716;8.790;2022-09-12T06:25:59;15.30;99.90
17252;DHT22;8742;51.716;8.790;2022-09-12T06:28:26;15.30;99.90
17252;DHT22;8742;51.716;8.790;2022-09-12T06:30:53;15.50;99.90
17252;DHT22;8742;51.716;8.790;2022-09-12T06:33:26;15.60;99.90
17252;DHT22;8742;51.716;8.790;2022-09-12T06:35:53;15.70;99.90
17252;DHT22;8742;51.716;8.790;2022-09-12T06:38:20;15.80;99.90
17252;DHT22;8742;51.716;8.790;2022-09-12T06:40:47;15.90;99.90
17252;DHT22;8742;51.716;8.790;2022-09-12T06:43:15;16.00;99.90
17252;DHT22;8742;51.716;8.790;2022-09-12T06:45:48;16.20;99.90
17252;DHT22;8742;51.716;8.790;2022-09-12T06:48:15;16.30;99.90
17252;DHT22;8742;51.716;8.790;2022-09-12T06:50:42;16.40;99.90
17252;DHT22;8742;51.716;8.790;2022-09-12T06:53:09;16.40;99.90
17252;DHT22;8742;51.716;8.790;2022-09-12T06:55:36;16.50;99.90
17252;DHT22;8742;51.716;8.790;2022-09-12T06:58:02;16.60;99.90
17252;DHT22;8742;51.716;8.790;2022-09-12T07:00:31;16.70;99.90
17252;DHT22;8742;51.716;8.790;2022-09-12T07:02:58;16.80;99.90
17252;DHT22;8742;51.716;8.790;2022-09-12T07:05:25;16.90;99.90
17252;DHT22;8742;51.716;8.790;2022-09-12T07:07:52;17.00;99.90
17252;DHT22;8742;51.716;8.790;2022-09-12T07:10:19;17.10;99.90
17252;DHT22;8742;51.716;8.790;2022-09-12T07:12:47;17.20;99.90
17252;DHT22;8742;51.716;8.790;2022-09-12T07:15:13;17.30;99.90
17252;DHT22;8742;51.716;8.790;2022-09-12T07:17:42;17.40;99.90
17252;DHT22;8742;51.716;8.790;2022-09-12T07:20:09;17.50;99.90
17252;DHT22;8742;51.716;8.790;2022-09-12T07:22:36;17.60;99.90
17252;DHT22;8742;51.716;8.790;2022-09-12T07:25:03;17.70;99.90
17252;DHT22;8742;51.716;8.790;2022-09-12T07:27:30;17.80;99.90
17252;DHT22;8742;51.716;8.790;2022-09-12T07:29:57;17.90;99.90
17252;DHT22;8742;51.716;8.790;2022-09-12T07:32:24;18.00;99.90
17252;DHT22;8742;51.716;8.790;2022-09-12T07:34:52;18.10;99.90
17252;DHT22;8742;51.716;8.790;2022-09-12T07:37:19;18.30;99.90
17252;DHT22;8742;51.716;8.790;2022-09-12T07:39:46;18.30;99.90
17252;DHT22;8742;51.716;8.790;2022-09-12T07:42:13;18.50;99.90
17252;DHT22;8742;51.716;8.790;2022-09-12T07:44:40;18.60;99.90
17252;DHT22;8742;51.716;8.790;2022-09-12T07:47:07;18.60;99.90
17252;DHT22;8742;51.716;8.790;2022-09-12T07:49:34;18.70;99.90
17252;DHT22;8742;51.716;8.790;2022-09-12T07:52:02;18.80;99.90
17252;DHT22;8742;51.716;8.790;2022-09-12T07:54:29;18.90;99.90
17252;DHT22;8742;51.716;8.790;2022-09-12T07:56:57;18.90;99.90
17252;DHT22;8742;51.716;8.790;2022-09-12T07:59:24;18.90;99.90
17252;DHT22;8742;51.716;8.790;2022-09-12T08:01:52;19.00;99.90
17252;DHT22;8742;51.716;8.790;2022-09-12T08:04:19;19.00;99.90
17252;DHT22;8742;51.716;8.790;2022-09-12T08:06:46;19.10;99.90
17252;DHT22;8742;51.716;8.790;2022-09-12T08:09:15;19.20;99.90
17252;DHT22;8742;51.716;8.790;2022-09-12T08:11:42;19.30;99.90
17252;DHT22;8742;51.716;8.790;2022-09-12T08:14:09;19.30;99.90
17252;DHT22;8742;51.716;8.790;2022-09-12T08:16:37;19.40;99.90
17252;DHT22;8742;51.716;8.790;2022-09-12T08:19:04;19.50;99.90
17252;DHT22;8742;51.716;8.790;2022-09-12T08:21:32;19.60;99.90
17252;DHT22;8742;51.716;8.790;2022-09-12T08:24:01;19.60;99.90
17252;DHT22;8742;51.716;8.790;2022-09-12T08:26:30;19.70;99.90
17252;DHT22;8742;51.716;8.790;2022-09-12T08:28:57;19.80;99.90
17252;DHT22;8742;51.716;8.790;2022-09-12T08:31:25;19.90;99.90
17252;DHT22;8742;51.716;8.790;2022-09-12T08:33:54;20.00;99.90
17252;DHT22;8742;51.716;8.790;2022-09-12T08:36:23;20.00;99.90
17252;DHT22;8742;51.716;8.790;2022-09-12T08:38:53;20.10;99.90
17252;DHT22;8742;51.716;8.790;2022-09-12T08:41:26;20.10;99.90
17252;DHT22;8742;51.716;8.790;2022-09-12T08:44:29;20.10;99.90
17252;DHT22;8742;51.716;8.790;2022-09-12T08:47:12;20.10;99.90
17252;DHT22;8742;51.716;8.790;2022-09-12T08:49:46;20.20;99.90
17252;DHT22;8742;51.716;8.790;2022-09-12T08:52:22;20.30;99.90
17252;DHT22;8742;51.716;8.790;2022-09-12T08:54:51;20.30;99.90
17252;DHT22;8742;51.716;8.790;2022-09-12T08:57:21;20.30;99.90
17252;DHT22;8742;51.716;8.790;2022-09-12T08:59:50;20.40;99.90
17252;DHT22;8742;51.716;8.790;2022-09-12T09:02:44;20.50;99.90
17252;DHT22;8742;51.716;8.790;2022-09-12T09:05:17;20.60;99.90
17252;DHT22;8742;51.716;8.790;2022-09-12T09:08:19;20.60;99.90
17252;DHT22;8742;51.716;8.790;2022-09-12T09:10:52;20.60;99.90
17252;DHT22;8742;51.716;8.790;2022-09-12T09:13:32;20.60;99.90
17252;DHT22;8742;51.716;8.790;2022-09-12T09:16:27;20.70;99.90
17252;DHT22;8742;51.716;8.790;2022-09-12T09:18:58;20.70;99.90
17252;DHT22;8742;51.716;8.790;2022-09-12T09:21:30;20.70;99.90
17252;DHT22;8742;51.716;8.790;2022-09-12T09:24:03;20.70;99.90
17252;DHT22;8742;51.716;8.790;2022-09-12T09:26:39;20.70;99.90
17252;DHT22;8742;51.716;8.790;2022-09-12T09:29:15;20.70;99.90
17252;DHT22;8742;51.716;8.790;2022-09-12T09:31:47;20.80;99.90
17252;DHT22;8742;51.716;8.790;2022-09-12T09:34:17;20.80;99.90
17252;DHT22;8742;51.716;8.790;2022-09-12T09:39:23;21.00;99.90
17252;DHT22;8742;51.716;8.790;2022-09-12T09:42:11;21.10;99.90
17252;DHT22;8742;51.716;8.790;2022-09-12T09:44:39;21.20;99.90
17252;DHT22;8742;51.716;8.790;2022-09-12T09:49:37;21.70;99.90
17252;DHT22;8742;51.716;8.790;2022-09-12T09:52:06;21.50;99.90
17252;DHT22;8742;51.716;8.790;2022-09-12T09:54:36;21.60;99.90
17252;DHT22;8742;51.716;8.790;2022-09-12T09:57:37;21.70;99.90
17252;DHT22;8742;51.716;8.790;2022-09-12T10:00:27;21.70;99.90
17252;DHT22;8742;51.716;8.790;2022-09-12T10:05:47;21.90;99.90
17252;DHT22;8742;51.716;8.790;2022-09-12T10:08:23;22.00;99.90
17252;DHT22;8742;51.716;8.790;2022-09-12T10:11:00;22.00;99.90
17252;DHT22;8742;51.716;8.790;2022-09-12T10:13:36;22.00;99.90
17252;DHT22;8742;51.716;8.790;2022-09-12T10:16:15;22.10;99.90
17252;DHT22;8742;51.716;8.790;2022-09-12T10:18:45;22.10;99.90
17252;DHT22;8742;51.716;8.790;2022-09-12T10:24:09;22.20;99.90
17252;DHT22;8742;51.716;8.790;2022-09-12T10:26:41;22.30;99.90
17252;DHT22;8742;51.716;8.790;2022-09-12T10:29:13;22.30;99.90
17252;DHT22;8742;51.716;8.790;2022-09-12T10:31:44;22.40;99.90
17252;DHT22;8742;51.716;8.790;2022-09-12T10:34:22;22.30;99.90
17252;DHT22;8742;51.716;8.790;2022-09-12T10:36:53;22.40;99.90
17252;DHT22;8742;51.716;8.790;2022-09-12T10:44:16;22.80;99.90
17252;DHT22;8742;51.716;8.790;2022-09-12T10:46:44;22.80;99.90
17252;DHT22;8742;51.716;8.790;2022-09-12T10:49:22;22.90;99.90
17252;DHT22;8742;51.716;8.790;2022-09-12T10:51:50;23.00;99.90
17252;DHT22;8742;51.716;8.790;2022-09-12T10:54:20;23.00;99.90
17252;DHT22;8742;51.716;8.790;2022-09-12T10:57:03;23.00;99.90
17252;DHT22;8742;51.716;8.790;2022-09-12T11:02:27;23.20;99.90
17252;DHT22;8742;51.716;8.790;2022-09-12T11:05:02;23.30;99.90
17252;DHT22;8742;51.716;8.790;2022-09-12T11:07:41;23.50;99.90
17252;DHT22;8742;51.716;8.790;2022-09-12T11:10:27;23.60;99.90
17252;DHT22;8742;51.716;8.790;2022-09-12T11:13:05;23.50;99.90
17252;DHT22;8742;51.716;8.790;2022-09-12T11:15:48;23.40;99.90
17252;DHT22;8742;51.716;8.790;2022-09-12T11:18:50;23.40;99.90
17252;DHT22;8742;51.716;8.790;2022-09-12T11:21:33;23.30;99.90
17252;DHT22;8742;51.716;8.790;2022-09-12T11:24:24;23.40;99.90
17252;DHT22;8742;51.716;8.790;2022-09-12T11:27:11;23.40;99.90
17252;DHT22;8742;51.716;8.790;2022-09-12T11:29:48;23.40;99.90
17252;DHT22;8742;51.716;8.790;2022-09-12T11:32:46;23.40;99.90
17252;DHT22;8742;51.716;8.790;2022-09-12T11:35:21;23.40;99.90
17252;DHT22;8742;51.716;8.790;2022-09-12T11:38:13;23.40;99.90
17252;DHT22;8742;51.716;8.790;2022-09-12T11:40:46;23.50;99.90
17252;DHT22;8742;51.716;8.790;2022-09-12T11:43:23;23.60;99.90
17252;DHT22;8742;51.716;8.790;2022-09-12T11:45:51;23.60;99.90
17252;DHT22;8742;51.716;8.790;2022-09-12T11:48:25;23.50;99.90
17252;DHT22;8742;51.716;8.790;2022-09-12T11:50:54;23.50;99.90
17252;DHT22;8742;51.716;8.790;2022-09-12T11:53:27;23.50;99.90
17252;DHT22;8742;51.716;8.790;2022-09-12T11:56:00;23.50;99.90
17252;DHT22;8742;51.716;8.790;2022-09-12T11:58:30;23.50;99.90
17252;DHT22;8742;51.716;8.790;2022-09-12T12:01:08;23.60;99.90
17252;DHT22;8742;51.716;8.790;2022-09-12T12:03:40;23.70;99.90
17252;DHT22;8742;51.716;8.790;2022-09-12T12:08:41;24.00;99.90
17252;DHT22;8742;51.716;8.790;2022-09-12T12:11:09;24.10;99.90
17252;DHT22;8742;51.716;8.790;2022-09-12T12:13:39;24.20;99.90
17252;DHT22;8742;51.716;8.790;2022-09-12T12:16:14;24.30;99.90
17252;DHT22;8742;51.716;8.790;2022-09-12T12:18:42;24.30;99.90
17252;DHT22;8742;51.716;8.790;2022-09-12T12:21:28;24.30;99.90
17252;DHT22;8742;51.716;8.790;2022-09-12T12:24:13;24.40;99.90
17252;DHT22;8742;51.716;8.790;2022-09-12T12:26:53;24.50;99.90
17252;DHT22;8742;51.716;8.790;2022-09-12T12:29:36;24.50;99.90
17252;DHT22;8742;51.716;8.790;2022-09-12T12:32:24;24.50;99.90
17252;DHT22;8742;51.716;8.790;2022-09-12T12:37:53;24.70;99.90
17252;DHT22;8742;51.716;8.790;2022-09-12T12:40:26;24.80;99.90
17252;DHT22;8742;51.716;8.790;2022-09-12T12:42:58;24.80;99.90
17252;DHT22;8742;51.716;8.790;2022-09-12T12:46:06;24.90;99.90
17252;DHT22;8742;51.716;8.790;2022-09-12T12:51:44;25.10;99.90
17252;DHT22;8742;51.716;8.790;2022-09-12T12:54:50;25.00;99.90
17252;DHT22;8742;51.716;8.790;2022-09-12T12:57:32;25.00;99.90
17252;DHT22;8742;51.716;8.790;2022-09-12T13:00:04;25.00;99.90
17252;DHT22;8742;51.716;8.790;2022-09-12T13:02:37;24.90;99.90
17252;DHT22;8742;51.716;8.790;2022-09-12T13:05:16;24.90;99.90
17252;DHT22;8742;51.716;8.790;2022-09-12T13:07:44;25.00;99.90
17252;DHT22;8742;51.716;8.790;2022-09-12T13:10:21;25.00;99.90
17252;DHT22;8742;51.716;8.790;2022-09-12T13:12:50;25.00;99.90
17252;DHT22;8742;51.716;8.790;2022-09-12T13:15:46;25.00;99.90
17252;DHT22;8742;51.716;8.790;2022-09-12T13:18:18;25.00;99.90
17252;DHT22;8742;51.716;8.790;2022-09-12T13:20:48;24.90;99.90
17252;DHT22;8742;51.716;8.790;2022-09-12T13:23:22;24.90;99.90
17252;DHT22;8742;51.716;8.790;2022-09-12T13:25:52;24.80;99.90
17252;DHT22;8742;51.716;8.790;2022-09-12T13:28:21;24.80;99.90
17252;DHT22;8742;51.716;8.790;2022-09-12T13:30:57;24.80;99.90
17252;DHT22;8742;51.716;8.790;2022-09-12T13:33:30;24.80;99.90
17252;DHT22;8742;51.716;8.790;2022-09-12T13:39:13;24.80;99.90
17252;DHT22;8742;51.716;8.790;2022-09-12T13:44:47;24.70;99.90
17252;DHT22;8742;51.716;8.790;2022-09-12T13:47:21;24.70;99.90
17252;DHT22;8742;51.716;8.790;2022-09-12T13:49:50;24.60;99.90
17252;DHT22;8742;51.716;8.790;2022-09-12T13:52:20;24.60;99.90
17252;DHT22;8742;51.716;8.790;2022-09-12T13:54:50;24.70;99.90
17252;DHT22;8742;51.716;8.790;2022-09-12T13:57:36;24.70;99.90
17252;DHT22;8742;51.716;8.790;2022-09-12T14:00:13;24.70;99.90
17252;DHT22;8742;51.716;8.790;2022-09-12T14:02:44;24.70;99.90
17252;DHT22;8742;51.716;8.790;2022-09-12T14:05:16;24.70;99.90
17252;DHT22;8742;51.716;8.790;2022-09-12T14:07:52;24.80;99.90
17252;DHT22;8742;51.716;8.790;2022-09-12T14:10:25;24.70;99.90
17252;DHT22;8742;51.716;8.790;2022-09-12T14:12:53;24.60;99.90
17252;DHT22;8742;51.716;8.790;2022-09-12T14:15:25;24.60;99.90
17252;DHT22;8742;51.716;8.790;2022-09-12T14:17:53;24.50;99.90
17252;DHT22;8742;51.716;8.790;2022-09-12T14:20:24;24.50;99.90
17252;DHT22;8742;51.716;8.790;2022-09-12T14:22:53;24.60;99.90
17252;DHT22;8742;51.716;8.790;2022-09-12T14:25:21;24.70;99.90
17252;DHT22;8742;51.716;8.790;2022-09-12T14:27:51;24.70;99.90
17252;DHT22;8742;51.716;8.790;2022-09-12T14:30:25;24.80;99.90
17252;DHT22;8742;51.716;8.790;2022-09-12T14:33:03;24.80;99.90
17252;DHT22;8742;51.716;8.790;2022-09-12T14:35:30;24.80;99.90
17252;DHT22;8742;51.716;8.790;2022-09-12T14:38:06;24.80;99.90
17252;DHT22;8742;51.716;8.790;2022-09-12T14:40:40;24.80;99.90
17252;DHT22;8742;51.716;8.790;2022-09-12T14:43:18;24.80;99.90
17252;DHT22;8742;51.716;8.790;2022-09-12T14:45:53;24.90;99.90
17252;DHT22;8742;51.716;8.790;2022-09-12T14:48:22;24.90;99.90
17252;DHT22;8742;51.716;8.790;2022-09-12T14:50:51;24.80;99.90
17252;DHT22;8742;51.716;8.790;2022-09-12T14:53:25;24.80;99.90
17252;DHT22;8742;51.716;8.790;2022-09-12T14:56:03;24.70;99.90
17252;DHT22;8742;51.716;8.790;2022-09-12T14:58:31;24.70;99.90
17252;DHT22;8742;51.716;8.790;2022-09-12T15:01:01;24.80;99.90
17252;DHT22;8742;51.716;8.790;2022-09-12T15:03:31;24.80;99.90
17252;DHT22;8742;51.716;8.790;2022-09-12T15:05:59;24.80;99.90
17252;DHT22;8742;51.716;8.790;2022-09-12T15:08:28;24.90;99.90
17252;DHT22;8742;51.716;8.790;2022-09-12T15:10:55;25.00;99.90
17252;DHT22;8742;51.716;8.790;2022-09-12T15:13:23;25.30;99.90
17252;DHT22;8742;51.716;8.790;2022-09-12T15:15:53;25.70;99.90
17252;DHT22;8742;51.716;8.790;2022-09-12T15:18:23;25.90;99.90
17252;DHT22;8742;51.716;8.790;2022-09-12T15:20:53;26.00;99.90
17252;DHT22;8742;51.716;8.790;2022-09-12T15:23:30;26.00;99.90
17252;DHT22;8742;51.716;8.790;2022-09-12T15:25:58;25.90;99.90
17252;DHT22;8742;51.716;8.790;2022-09-12T15:28:25;25.70;99.90
17252;DHT22;8742;51.716;8.790;2022-09-12T15:30:54;25.60;99.90
17252;DHT22;8742;51.716;8.790;2022-09-12T15:33:23;25.40;99.90
17252;DHT22;8742;51.716;8.790;2022-09-12T15:35:51;25.30;99.90
17252;DHT22;8742;51.716;8.790;2022-09-12T15:38:19;25.20;99.90
17252;DHT22;8742;51.716;8.790;2022-09-12T15:40:49;25.10;99.90
17252;DHT22;8742;51.716;8.790;2022-09-12T15:43:17;25.00;99.90
17252;DHT22;8742;51.716;8.790;2022-09-12T15:45:45;24.90;99.90
17252;DHT22;8742;51.716;8.790;2022-09-12T15:48:12;24.80;99.90
17252;DHT22;8742;51.716;8.790;2022-09-12T15:50:41;24.70;99.90
17252;DHT22;8742;51.716;8.790;2022-09-12T15:53:12;24.50;99.90
17252;DHT22;8742;51.716;8.790;2022-09-12T15:55:39;24.40;99.90
17252;DHT22;8742;51.716;8.790;2022-09-12T15:58:07;24.30;99.90
17252;DHT22;8742;51.716;8.790;2022-09-12T16:00:34;24.20;99.90
17252;DHT22;8742;51.716;8.790;2022-09-12T16:03:01;24.10;99.90
17252;DHT22;8742;51.716;8.790;2022-09-12T16:05:28;24.00;99.90
17252;DHT22;8742;51.716;8.790;2022-09-12T16:07:56;23.80;99.90
17252;DHT22;8742;51.716;8.790;2022-09-12T16:10:25;23.70;99.90
17252;DHT22;8742;51.716;8.790;2022-09-12T16:12:53;23.70;99.90
17252;DHT22;8742;51.716;8.790;2022-09-12T16:15:21;23.60;99.90
17252;DHT22;8742;51.716;8.790;2022-09-12T16:17:49;23.50;99.90
17252;DHT22;8742;51.716;8.790;2022-09-12T16:20:17;23.40;99.90
17252;DHT22;8742;51.716;8.790;2022-09-12T16:22:44;23.40;99.90
17252;DHT22;8742;51.716;8.790;2022-09-12T16:25:13;23.30;99.90
17252;DHT22;8742;51.716;8.790;2022-09-12T16:27:40;23.20;99.90
17252;DHT22;8742;51.716;8.790;2022-09-12T16:30:08;23.20;99.90
17252;DHT22;8742;51.716;8.790;2022-09-12T16:35:02;23.10;99.90
17252;DHT22;8742;51.716;8.790;2022-09-12T16:37:30;23.10;99.90
17252;DHT22;8742;51.716;8.790;2022-09-12T16:39:59;23.00;99.90
17252;DHT22;8742;51.716;8.790;2022-09-12T16:42:27;23.00;99.90
17252;DHT22;8742;51.716;8.790;2022-09-12T16:44:54;22.90;99.90
17252;DHT22;8742;51.716;8.790;2022-09-12T16:47:20;22.90;99.90
17252;DHT22;8742;51.716;8.790;2022-09-12T16:49:47;22.80;99.90
17252;DHT22;8742;51.716;8.790;2022-09-12T16:52:16;22.80;99.90
17252;DHT22;8742;51.716;8.790;2022-09-12T16:54:43;22.70;99.90
17252;DHT22;8742;51.716;8.790;2022-09-12T16:57:10;22.70;99.90